Time;durP1;ratioP1;P1;durP2;ratioP2;P2;SDS_P1;SDS_P2;PMS_P1;PMS_P2;Temp;Humidity;BMP_temperature;BMP_pressure;BME280_temperature;BME280_humidity;BME280_pressure;Samples;Min_cycle;Max_cycle;Signal;HPM_P1;HPM_P2
2021/11/26 02:10:15;;;;;;;22.67;15.00;;;;;;;5.16;66.99;94376.25;2161756;54;20405;-66
2021/11/26 02:12:17;;;;;;;25.85;14.73;;;;;;;5.12;66.87;94374.91;2163684;46;20157;-66
2021/11/26 02:14:20;;;;;;;23.60;14.35;;;;;;;5.04;67.22;94391.13;2164182;39;20394;-67
2021/11/26 02:16:22;;;;;;;23.70;14.77;;;;;;;5.02;67.66;94385.25;2163057;54;20533;-67
2021/11/26 02:18:24;;;;;;;23.65;14.93;;;;;;;5.01;67.87;94385.38;2163505;39;20476;-67
2021/11/26 02:20:27;;;;;;;23.83;15.27;;;;;;;4.92;67.57;94380.03;2163282;54;20035;-67
2021/11/26 02:22:29;;;;;;;;;;;;;;;4.80;67.99;94365.53;2163112;54;20030;-67
2021/11/26 02:24:31;;;;;;;21.88;14.43;;;;;;;4.72;68.57;94366.19;2162998;47;19947;-67
2021/11/26 02:26:41;;;;;;;21.75;13.85;;;;;;;4.69;68.86;94371.66;2163708;39;20172;-69
2021/11/26 02:28:43;;;;;;;24.25;15.23;;;;;;;4.70;68.68;94369.88;2163108;47;20549;-67
2021/11/26 02:30:45;;;;;;;20.88;13.52;;;;;;;4.75;69.08;94362.50;2163482;39;20357;-67
2021/11/26 02:32:55;;;;;;;24.35;15.32;;;;;;;4.80;68.59;94352.56;2160878;31;20494;-68
2021/11/26 02:34:57;;;;;;;23.20;14.40;;;;;;;4.77;68.65;94342.41;2163150;54;20085;-68
2021/11/26 02:36:59;;;;;;;27.77;16.48;;;;;;;4.75;68.77;94352.13;2163809;54;20606;-67
2021/11/26 02:39:07;;;;;;;27.25;14.80;;;;;;;4.78;68.86;94348.47;2162987;54;20034;-67
2021/11/26 02:41:09;;;;;;;24.13;15.07;;;;;;;4.73;69.07;94346.22;2163024;54;20056;-67
2021/11/26 02:43:13;;;;;;;21.90;14.48;;;;;;;4.73;69.19;94335.84;2162936;47;20138;-68
2021/11/26 02:45:15;;;;;;;25.08;14.77;;;;;;;4.75;69.42;94344.31;2163429;39;20535;-68
2021/11/26 02:47:17;;;;;;;24.48;14.93;;;;;;;4.76;69.46;94343.38;2163649;47;20034;-68
2021/11/26 02:49:19;;;;;;;22.60;13.95;;;;;;;4.77;69.35;94350.22;2163200;54;20031;-67
2021/11/26 02:51:21;;;;;;;24.98;14.73;;;;;;;4.80;68.93;94341.38;2163806;54;20052;-68
2021/11/26 02:53:23;;;;;;;21.17;13.55;;;;;;;4.80;68.96;94338.78;2162210;54;20031;-68
2021/11/26 02:55:28;;;;;;;24.90;14.60;;;;;;;4.76;69.08;94333.00;2163449;47;20101;-67
2021/11/26 02:57:29;;;;;;;27.15;15.75;;;;;;;4.72;69.33;94323.84;2163341;54;20042;-66
2021/11/26 02:59:31;;;;;;;25.92;15.27;;;;;;;4.75;69.37;94326.16;2163655;47;20564;-70
2021/11/26 03:01:33;;;;;;;23.83;13.90;;;;;;;4.77;69.35;94326.03;2163118;54;20209;-67
2021/11/26 03:03:35;;;;;;;23.45;14.90;;;;;;;4.75;69.23;94314.97;2163439;47;20057;-67
2021/11/26 03:05:37;;;;;;;24.10;14.43;;;;;;;4.76;69.05;94311.44;2162730;46;20084;-68
2021/11/26 03:07:40;;;;;;;24.00;13.75;;;;;;;4.75;69.22;94318.38;2163425;54;20034;-68
2021/11/26 03:09:41;;;;;;;25.50;13.90;;;;;;;4.76;69.04;94314.84;2162054;54;20038;-67
2021/11/26 03:11:43;;;;;;;25.45;13.98;;;;;;;4.75;69.25;94304.59;2163574;47;20435;-66
2021/11/26 03:13:45;;;;;;;22.45;13.98;;;;;;;4.74;68.99;94301.19;2162780;47;20031;-67
2021/11/26 03:15:47;;;;;;;26.50;15.82;;;;;;;4.73;69.06;94291.75;2163606;47;20038;-67
2021/11/26 03:17:50;;;;;;;22.50;14.23;;;;;;;4.70;69.28;94300.63;2162913;54;20592;-69
2021/11/26 03:19:52;;;;;;;28.35;14.90;;;;;;;4.71;69.38;94301.44;2162713;54;20041;-67
2021/11/26 03:21:54;;;;;;;22.95;14.38;;;;;;;4.72;69.33;94308.28;2163520;54;20045;-68
2021/11/26 03:23:56;;;;;;;24.98;14.45;;;;;;;4.65;69.08;94309.78;2163014;39;20319;-66
2021/11/26 03:25:57;;;;;;;26.63;14.70;;;;;;;4.67;69.46;94313.06;2162884;47;20038;-68
2021/11/26 03:27:59;;;;;;;22.85;13.55;;;;;;;4.69;69.43;94311.16;2163497;49;20126;-67
2021/11/26 03:30:03;;;;;;;22.98;14.70;;;;;;;4.71;69.49;94304.88;2163417;54;20073;-67
2021/11/26 03:32:05;;;;;;;23.50;14.45;;;;;;;4.73;69.68;94291.75;2162828;47;20387;-68
2021/11/26 03:34:07;;;;;;;24.92;14.43;;;;;;;4.69;69.50;94296.41;2163164;47;20060;-67
2021/11/26 03:36:09;;;;;;;23.42;14.93;;;;;;;4.67;69.32;94287.94;2162688;49;20034;-67
2021/11/26 03:38:11;;;;;;;23.67;14.30;;;;;;;4.67;69.62;94282.72;2163496;54;20038;-68
2021/11/26 03:40:15;;;;;;;24.65;14.50;;;;;;;4.69;69.67;94286.03;2162329;54;20034;-68
2021/11/26 03:42:17;;;;;;;26.95;14.38;;;;;;;4.68;69.27;94291.34;2163050;54;20072;-68
2021/11/26 03:44:18;;;;;;;23.25;13.63;;;;;;;4.70;69.38;94281.63;2163497;47;20081;-68
2021/11/26 03:46:20;;;;;;;21.63;13.20;;;;;;;4.67;69.52;94285.31;2162767;47;20037;-67
2021/11/26 03:48:22;;;;;;;24.00;15.02;;;;;;;4.67;69.51;94281.91;2163124;54;20057;-68
2021/11/26 03:50:26;;;;;;;25.17;14.60;;;;;;;4.68;69.52;94275.75;2163071;39;20146;-67
2021/11/26 03:52:29;;;;;;;24.33;14.07;;;;;;;4.64;69.47;94266.59;2162841;47;20038;-67
2021/11/26 03:54:30;;;;;;;25.98;14.48;;;;;;;4.58;69.76;94267.13;2162374;47;20030;-67
2021/11/26 03:56:32;;;;;;;25.45;15.23;;;;;;;4.56;69.66;94261.25;2163197;54;20035;-67
2021/11/26 03:58:34;;;;;;;23.95;14.20;;;;;;;4.53;69.96;94251.16;2163195;47;20042;-67
2021/11/26 04:00:36;;;;;;;22.85;13.80;;;;;;;4.54;69.98;94239.81;2163402;47;20035;-68
2021/11/26 04:02:39;;;;;;;20.88;14.30;;;;;;;4.49;69.91;94235.84;2163236;54;20144;-67
2021/11/26 04:04:41;;;;;;;23.42;13.90;;;;;;;4.48;69.83;94234.22;2163222;47;20034;-68
2021/11/26 04:06:43;;;;;;;25.55;14.88;;;;;;;4.49;70.13;94228.06;2163841;47;20367;-66
2021/11/26 04:08:45;;;;;;;23.73;13.77;;;;;;;4.49;69.65;94217.69;2162852;54;20076;-67
2021/11/26 04:10:47;;;;;;;27.30;15.50;;;;;;;4.48;69.57;94220.44;2163051;54;20038;-68
2021/11/26 04:12:50;;;;;;;23.80;14.77;;;;;;;4.37;70.08;94234.34;2163419;47;20035;-66
2021/11/26 04:14:54;;;;;;;22.67;14.03;;;;;;;4.37;70.17;94223.97;2163659;54;20569;-75
2021/11/26 04:16:56;;;;;;;23.95;14.00;;;;;;;4.38;70.05;94222.19;2163980;47;20057;-73
2021/11/26 04:18:58;;;;;;;23.40;14.77;;;;;;;4.38;70.07;94228.19;2164258;39;20516;-74
2021/11/26 04:21:03;;;;;;;21.02;13.93;;;;;;;4.39;69.96;94229.84;2163242;31;20530;-70
2021/11/26 04:23:05;;;;;;;23.75;13.75;;;;;;;4.42;70.06;94226.16;2163365;47;20035;-69
2021/11/26 04:25:10;;;;;;;24.77;14.15;;;;;;;4.41;70.20;94217.56;2162224;54;20030;-67
2021/11/26 04:27:12;;;;;;;20.20;13.85;;;;;;;4.43;70.29;94212.22;2162932;46;20097;-68
2021/11/26 04:29:14;;;;;;;21.85;13.40;;;;;;;4.46;70.05;94210.19;2163668;54;20138;-67
2021/11/26 04:31:16;;;;;;;25.13;14.27;;;;;;;4.38;70.15;94210.03;2163465;47;20026;-68
2021/11/26 04:33:18;;;;;;;23.00;13.80;;;;;;;4.43;70.02;94213.06;2163317;47;20509;-68
2021/11/26 04:35:21;;;;;;;25.23;14.13;;;;;;;4.42;70.21;94226.97;2162990;47;20533;-68
2021/11/26 04:37:23;;;;;;;21.58;13.38;;;;;;;4.42;70.35;94223.56;2162827;47;20034;-66
2021/11/26 04:39:25;;;;;;;22.77;13.60;;;;;;;4.43;70.12;94228.63;2162232;54;20038;-67
2021/11/26 04:41:27;;;;;;;21.55;13.73;;;;;;;4.42;70.51;94223.56;2163071;47;20223;-68
2021/11/26 04:43:28;;;;;;;21.75;13.18;;;;;;;4.43;70.53;94228.63;2163596;47;20046;-66
2021/11/26 04:45:30;;;;;;;19.83;13.30;;;;;;;4.45;70.32;94218.09;2162493;49;20078;-68
2021/11/26 04:47:32;;;;;;;21.10;13.52;;;;;;;4.49;70.48;94215.09;2163327;39;20485;-67
2021/11/26 04:49:34;;;;;;;22.77;13.80;;;;;;;4.50;70.43;94219.34;2163353;51;20052;-68
2021/11/26 04:51:36;;;;;;;23.65;13.88;;;;;;;4.52;70.35;94221.81;2163090;54;20030;-69
2021/11/26 04:53:38;;;;;;;23.42;14.05;;;;;;;4.50;70.43;94219.34;2162616;54;20040;-67
2021/11/26 04:55:40;;;;;;;22.98;14.25;;;;;;;4.49;70.56;94217.69;2163189;47;20080;-68
2021/11/26 04:57:42;;;;;;;21.55;13.25;;;;;;;4.46;70.80;94207.59;2162619;54;20034;-68
2021/11/26 04:59:44;;;;;;;21.23;13.60;;;;;;;4.47;71.01;94208.41;2163064;47;20072;-66
2021/11/26 05:01:46;;;;;;;22.60;13.40;;;;;;;4.51;70.87;94207.19;2163408;39;20472;-65
2021/11/26 05:03:48;;;;;;;23.63;14.85;;;;;;;4.54;70.76;94204.34;2162965;47;20130;-67
2021/11/26 05:05:51;;;;;;;21.52;13.13;;;;;;;4.46;71.08;94194.63;2162686;54;20065;-68
2021/11/26 05:07:53;;;;;;;20.90;13.35;;;;;;;4.42;71.30;94190.66;2162404;54;20038;-67
2021/11/26 05:09:59;;;;;;;20.35;12.52;;;;;;;4.43;71.31;94192.31;2162603;47;20053;-67
2021/11/26 05:12:02;;;;;;;21.80;13.30;;;;;;;4.46;71.19;94183.44;2162622;39;20094;-66
2021/11/26 05:14:05;;;;;;;26.40;14.75;;;;;;;4.46;71.41;94181.66;2162470;54;20101;-68
2021/11/26 05:16:07;;;;;;;22.38;14.02;;;;;;;4.43;71.59;94176.75;2162416;54;20030;-74
2021/11/26 05:18:09;;;;;;;22.73;13.13;;;;;;;4.39;72.03;94170.19;2163182;54;20030;-75
2021/11/26 05:20:11;;;;;;;23.75;13.07;;;;;;;4.40;71.87;94171.00;2163532;46;20056;-75
2021/11/26 05:22:14;;;;;;;26.17;13.60;;;;;;;4.25;72.36;94162.78;2162845;54;20054;-74
2021/11/26 05:24:15;;;;;;;25.10;13.75;;;;;;;4.22;72.63;94156.09;2161874;54;20307;-68
2021/11/26 05:26:17;;;;;;;26.27;14.35;;;;;;;4.24;72.77;94161.97;2162459;47;20035;-69
2021/11/26 05:28:19;;;;;;;25.52;14.00;;;;;;;4.26;72.52;94162.66;2163247;51;20034;-67
2021/11/26 05:30:21;;;;;;;24.67;14.65;;;;;;;4.22;72.73;94168.25;2163011;47;20073;-68
2021/11/26 05:32:23;;;;;;;22.48;13.85;;;;;;;4.26;72.64;94167.03;2163405;39;20471;-68
2021/11/26 05:34:25;;;;;;;22.58;14.40;;;;;;;4.29;72.45;94167.56;2162957;47;20031;-68
2021/11/26 05:36:27;;;;;;;24.13;14.00;;;;;;;4.34;72.59;94161.97;2163122;47;20104;-68
2021/11/26 05:38:29;;;;;;;22.33;13.90;;;;;;;4.35;72.49;94171.41;2162415;47;20030;-67
2021/11/26 05:40:31;;;;;;;23.50;13.73;;;;;;;4.37;72.20;94166.91;2163106;39;20422;-67
2021/11/26 05:42:34;;;;;;;24.55;14.80;;;;;;;4.36;72.26;94156.66;2163161;47;20584;-69
2021/11/26 05:44:36;;;;;;;25.63;14.57;;;;;;;4.29;72.55;94157.19;2163005;47;20552;-68
2021/11/26 05:46:38;;;;;;;22.33;14.70;;;;;;;4.31;72.83;94175.22;2162855;54;20034;-68
2021/11/26 05:48:40;;;;;;;24.60;14.90;;;;;;;4.39;72.53;94169.34;2163180;54;20038;-74
2021/11/26 05:50:42;;;;;;;27.45;16.27;;;;;;;4.49;72.18;94171.00;2163719;39;20550;-73
2021/11/26 05:52:45;;;;;;;26.15;14.65;;;;;;;4.56;71.66;94167.88;2162835;47;20515;-68
2021/11/26 05:54:46;;;;;;;26.23;14.48;;;;;;;4.60;71.47;94153.66;2161721;47;20042;-67
2021/11/26 05:56:48;;;;;;;27.70;15.02;;;;;;;4.56;71.40;94142.78;2163686;47;20056;-67
2021/11/26 05:58:50;;;;;;;23.17;14.52;;;;;;;4.56;71.31;94128.97;2163816;54;20037;-68
2021/11/26 06:00:52;;;;;;;22.08;13.60;;;;;;;4.55;71.56;94133.34;2163707;47;20037;-67
2021/11/26 06:02:54;;;;;;;22.48;14.10;;;;;;;4.60;71.56;94136.31;2163108;47;20034;-69
2021/11/26 06:04:56;;;;;;;21.60;12.75;;;;;;;4.58;71.30;94127.88;2163427;54;20548;-68
2021/11/26 06:06:59;;;;;;;23.33;13.48;;;;;;;4.57;71.23;94128.00;2163903;54;20039;-67
2021/11/26 06:09:01;;;;;;;24.88;13.73;;;;;;;4.59;71.48;94132.09;2162995;47;20081;-68
2021/11/26 06:11:03;;;;;;;26.63;13.65;;;;;;;4.62;71.25;94120.63;2164248;39;20445;-69
2021/11/26 06:13:05;;;;;;;22.90;13.68;;;;;;;4.61;70.84;94114.63;2163706;54;20038;-69
2021/11/26 06:15:08;;;;;;;20.77;12.60;;;;;;;4.60;71.05;94104.38;2163851;54;20595;-68
2021/11/26 06:17:10;;;;;;;20.45;12.98;;;;;;;4.62;71.15;94098.09;2163170;47;20035;-74
2021/11/26 06:19:12;;;;;;;24.27;14.35;;;;;;;4.71;70.97;94094.69;2163706;46;20030;-74
2021/11/26 06:21:14;;;;;;;22.35;13.15;;;;;;;4.74;70.44;94091.00;2163781;47;20053;-72
2021/11/26 06:23:16;;;;;;;19.98;12.38;;;;;;;4.75;70.63;94087.44;2163357;47;20046;-73
2021/11/26 06:25:21;;;;;;;23.50;13.40;;;;;;;4.82;70.78;94077.31;2163442;54;20041;-76
2021/11/26 06:27:23;;;;;;;25.52;12.48;;;;;;;4.84;70.78;94080.59;2162961;54;20367;-74
2021/11/26 06:29:25;;;;;;;20.02;12.45;;;;;;;4.88;70.62;94087.97;2163804;47;20042;-74
2021/11/26 06:31:26;;;;;;;20.73;12.07;;;;;;;4.90;70.19;94088.66;2164510;31;20576;-75
2021/11/26 06:33:28;;;;;;;22.20;12.25;;;;;;;4.85;70.06;94093.44;2163692;50;20080;-74
2021/11/26 06:35:31;;;;;;;21.42;13.00;;;;;;;4.83;69.80;94100.53;2163670;47;20577;-74
2021/11/26 06:37:34;;;;;;;21.67;12.77;;;;;;;4.77;69.67;94098.50;2163122;47;20035;-73
2021/11/26 06:39:35;;;;;;;20.05;12.38;;;;;;;4.82;69.71;94088.53;2163313;54;20092;-75
2021/11/26 06:41:37;;;;;;;21.23;12.48;;;;;;;4.84;69.71;94097.00;2163072;54;20745;-75
2021/11/26 06:43:39;;;;;;;22.35;12.90;;;;;;;4.80;69.62;94116.41;2163669;54;20107;-75
2021/11/26 06:45:43;;;;;;;21.27;13.02;;;;;;;4.81;69.49;94112.84;2163625;54;20031;-76
2021/11/26 06:47:46;;;;;;;24.75;13.88;;;;;;;4.85;69.32;94098.63;2164019;39;20376;-74
2021/11/26 06:49:48;;;;;;;23.88;13.27;;;;;;;4.86;69.17;94086.47;2163139;54;20039;-75
2021/11/26 06:51:50;;;;;;;24.00;13.40;;;;;;;4.85;69.46;94085.66;2163710;47;20031;-78
2021/11/26 06:53:54;;;;;;;23.48;12.85;;;;;;;4.89;69.16;94068.84;2163562;54;20076;-74
2021/11/26 06:55:56;;;;;;;22.67;13.65;;;;;;;4.86;69.24;94055.31;2164298;54;20090;-73
2021/11/26 06:57:59;;;;;;;20.75;13.05;;;;;;;4.78;69.54;94061.22;2163623;54;20469;-75
2021/11/26 07:00:01;;;;;;;23.73;13.93;;;;;;;4.78;69.36;94061.22;2163562;54;20030;-76
2021/11/26 07:02:03;;;;;;;21.40;13.48;;;;;;;4.79;69.42;94056.84;2163063;39;20488;-75
2021/11/26 07:04:07;;;;;;;27.45;15.10;;;;;;;4.60;70.13;94063.69;2163539;47;20030;-76
2021/11/26 07:06:09;;;;;;;27.95;14.73;;;;;;;4.62;70.24;94050.59;2163703;54;20050;-75
2021/11/26 07:08:11;;;;;;;22.13;14.10;;;;;;;4.70;70.11;94045.53;2163300;39;20467;-75
2021/11/26 07:10:13;;;;;;;26.10;15.05;;;;;;;4.76;69.62;94052.75;2162267;47;20138;-74
2021/11/26 07:12:15;;;;;;;25.63;14.73;;;;;;;4.74;69.95;94057.25;2163730;39;20302;-75
2021/11/26 07:14:17;;;;;;;22.63;13.77;;;;;;;4.75;69.45;94048.50;2163574;54;20088;-74
2021/11/26 07:16:19;;;;;;;31.73;13.30;;;;;;;4.82;69.42;94049.59;2162970;54;20030;-76
2021/11/26 07:18:21;;;;;;;22.92;14.07;;;;;;;4.72;69.53;94041.03;2163868;39;20495;-74
2021/11/26 07:20:23;;;;;;;23.50;14.02;;;;;;;4.63;69.82;94029.69;2163511;54;20069;-74
2021/11/26 07:22:29;;;;;;;24.90;13.70;;;;;;;4.69;70.38;94031.75;2163665;54;20492;-75
2021/11/26 07:24:31;;;;;;;21.08;13.60;;;;;;;4.72;70.00;94025.44;2163041;54;20037;-76
2021/11/26 07:26:32;;;;;;;29.30;14.07;;;;;;;4.67;70.21;94019.88;2164189;39;20528;-75
2021/11/26 07:28:34;;;;;;;24.40;12.95;;;;;;;4.74;69.92;94018.34;2163756;46;20203;-74
2021/11/26 07:30:39;;;;;;;21.63;13.73;;;;;;;4.81;69.60;94003.03;2163650;46;20073;-75
2021/11/26 07:32:41;;;;;;;21.70;12.65;;;;;;;4.66;69.57;94013.84;2163487;47;20557;-74
2021/11/26 07:34:43;;;;;;;24.08;12.98;;;;;;;4.66;69.67;94010.44;2163322;54;20561;-75
2021/11/26 07:36:45;;;;;;;20.05;13.05;;;;;;;4.66;69.57;94013.03;2163544;54;20186;-75
2021/11/26 07:38:47;;;;;;;23.52;14.25;;;;;;;4.77;69.49;94012.06;2162778;47;20042;-75
2021/11/26 07:40:52;;;;;;;22.33;13.20;;;;;;;4.74;69.14;93992.41;2162743;47;20092;-73
2021/11/26 07:42:54;;;;;;;21.35;13.98;;;;;;;4.78;69.32;94001.53;2163232;54;20034;-74
2021/11/26 07:44:56;;;;;;;21.00;13.38;;;;;;;4.75;69.08;93996.63;2163504;54;20034;-75
2021/11/26 07:46:58;;;;;;;23.65;15.05;;;;;;;4.77;68.85;93992.09;2163448;31;20553;-74
2021/11/26 07:49:00;;;;;;;23.60;14.13;;;;;;;4.77;69.03;93984.31;2163326;47;20038;-75
2021/11/26 07:51:02;;;;;;;34.50;21.23;;;;;;;4.86;69.02;93980.91;2163474;47;20084;-76
2021/11/26 07:53:04;;;;;;;34.65;21.63;;;;;;;4.89;69.21;93987.56;2163406;46;20030;-74
2021/11/26 07:55:06;;;;;;;29.30;18.40;;;;;;;5.00;68.85;93971.81;2162224;54;20030;-73
2021/11/26 07:57:09;;;;;;;23.30;13.95;;;;;;;5.06;68.50;93966.06;2162608;47;20612;-75
2021/11/26 07:59:12;;;;;;;32.53;14.40;;;;;;;5.12;68.18;93972.47;2163616;54;20039;-74
2021/11/26 08:01:14;;;;;;;21.92;13.52;;;;;;;5.11;67.99;93963.03;2163607;47;20030;-75
2021/11/26 08:03:18;;;;;;;22.00;13.57;;;;;;;4.96;68.25;93943.69;2163633;54;20031;-75
2021/11/26 08:05:36;;;;;;;24.13;14.27;;;;;;;4.90;68.43;93943.31;2163441;54;20031;-75
2021/11/26 08:07:38;;;;;;;21.60;13.75;;;;;;;4.85;68.66;93942.91;2163496;47;20030;-75
2021/11/26 08:09:40;;;;;;;22.45;13.75;;;;;;;4.83;68.99;93936.25;2162568;47;20039;-74
2021/11/26 08:11:43;;;;;;;23.60;13.98;;;;;;;4.81;68.80;93928.59;2163309;47;20521;-76
2021/11/26 08:13:45;;;;;;;24.85;14.13;;;;;;;4.78;69.26;93933.25;2162968;39;20480;-73
2021/11/26 08:15:47;;;;;;;23.08;13.93;;;;;;;4.74;69.00;93927.53;2163506;54;20030;-76
2021/11/26 08:17:49;;;;;;;20.60;13.85;;;;;;;4.80;68.88;93929.56;2163013;51;20030;-75
2021/11/26 08:19:51;;;;;;;21.25;13.23;;;;;;;4.90;68.66;93932.09;2162784;47;20038;-75
2021/11/26 08:22:17;;;;;;;21.75;13.48;;;;;;;4.98;68.16;93940.00;2162915;47;20038;-78
2021/11/26 08:24:19;;;;;;;20.30;13.77;;;;;;;5.01;68.02;93947.50;2162473;47;20038;-76
2021/11/26 08:26:21;;;;;;;21.85;13.43;;;;;;;5.04;67.90;93939.41;2163414;39;20314;-75
2021/11/26 08:28:24;;;;;;;43.78;24.35;;;;;;;5.03;68.16;93949.94;2163189;54;20038;-77
2021/11/26 08:30:25;;;;;;;21.20;13.05;;;;;;;4.99;67.69;93939.03;2163168;47;20391;-76
2021/11/26 08:32:28;;;;;;;22.98;13.15;;;;;;;4.97;67.92;93934.94;2163427;54;20042;-69
2021/11/26 08:34:30;;;;;;;23.70;12.95;;;;;;;4.91;68.10;93921.59;2163389;39;20476;-68
2021/11/26 08:36:32;;;;;;;22.58;13.57;;;;;;;4.80;68.52;93924.38;2163245;54;20041;-69
2021/11/26 08:38:34;;;;;;;26.85;13.80;;;;;;;4.77;68.55;93918.63;2162502;54;20053;-69
2021/11/26 08:40:36;;;;;;;26.40;14.13;;;;;;;4.86;68.45;93923.81;2162501;54;20038;-69
2021/11/26 08:42:38;;;;;;;28.15;13.40;;;;;;;4.70;68.91;93910.59;2163195;47;20038;-68
2021/11/26 08:44:39;;;;;;;23.33;13.90;;;;;;;4.64;69.41;93893.00;2163180;54;20031;-69
2021/11/26 08:46:43;;;;;;;24.20;14.50;;;;;;;4.75;69.27;93874.66;2163283;54;20034;-70
2021/11/26 08:48:45;;;;;;;21.08;13.55;;;;;;;4.66;69.25;93860.78;2163385;39;20452;-66
2021/11/26 08:50:47;;;;;;;22.67;14.73;;;;;;;4.66;69.11;93840.03;2163019;54;20053;-70
2021/11/26 08:52:49;;;;;;;24.20;14.07;;;;;;;4.64;69.50;93830.75;2162108;47;20065;-68
2021/11/26 08:54:51;;;;;;;20.67;13.73;;;;;;;4.53;70.07;93846.50;2162266;54;20117;-67
2021/11/26 08:56:55;;;;;;;22.65;14.10;;;;;;;4.61;70.32;93841.44;2163076;47;20053;-67
2021/11/26 08:59:01;;;;;;;22.40;13.77;;;;;;;4.68;70.69;93834.69;2162653;54;20031;-70
2021/11/26 09:01:04;;;;;;;22.58;13.95;;;;;;;4.77;70.90;93823.44;2163279;47;20058;-69
2021/11/26 09:03:07;;;;;;;26.75;13.48;;;;;;;4.79;70.43;93808.53;2162575;54;20557;-70
2021/11/26 09:05:09;;;;;;;23.02;14.90;;;;;;;4.85;70.58;93812.34;2162887;47;20030;-69
2021/11/26 09:07:10;;;;;;;23.23;14.88;;;;;;;4.93;70.57;93831.41;2163109;47;20034;-69
2021/11/26 09:09:12;;;;;;;23.13;14.27;;;;;;;4.94;70.15;93829.63;2162281;54;20073;-71
2021/11/26 09:11:16;;;;;;;25.08;14.55;;;;;;;4.96;70.24;93826.91;2163129;47;20562;-70
2021/11/26 09:13:18;;;;;;;22.17;15.00;;;;;;;4.99;69.84;93826.59;2163177;47;20039;-68
2021/11/26 09:15:20;;;;;;;22.17;13.70;;;;;;;5.04;69.92;93796.66;2163126;54;20076;-69
2021/11/26 09:17:22;;;;;;;28.67;16.17;;;;;;;5.08;70.08;93777.22;2163467;39;20417;-70
2021/11/26 09:19:24;;;;;;;25.75;14.82;;;;;;;5.16;69.70;93767.84;2163245;47;20038;-70
2021/11/26 09:21:26;;;;;;;22.27;14.27;;;;;;;5.16;69.60;93760.06;2162844;47;20080;-70
2021/11/26 09:23:28;;;;;;;23.00;14.38;;;;;;;5.17;69.68;93752.13;2161827;39;20639;-70
2021/11/26 09:25:31;;;;;;;20.80;13.60;;;;;;;5.27;69.40;93749.44;2163249;39;20436;-70
2021/11/26 09:27:33;;;;;;;26.67;16.03;;;;;;;5.12;69.15;93751.78;2163049;50;20035;-68
2021/11/26 09:29:44;;;;;;;19.67;13.93;;;;;;;4.91;69.42;93747.69;2163238;47;20049;-68
2021/11/26 09:31:46;;;;;;;22.70;14.48;;;;;;;4.86;70.42;93760.31;2163177;54;20030;-70
2021/11/26 09:33:49;;;;;;;23.98;14.77;;;;;;;4.96;70.56;93744.66;2163884;39;20803;-69
2021/11/26 09:35:51;;;;;;;20.23;14.05;;;;;;;4.98;70.20;93728.94;2163905;39;20464;-68
2021/11/26 09:37:54;;;;;;;21.83;13.80;;;;;;;5.08;69.25;93709.72;2163588;54;20042;-70
2021/11/26 09:39:56;;;;;;;22.10;14.65;;;;;;;5.16;69.28;93719.34;2162274;54;20623;-69
2021/11/26 09:41:58;;;;;;;21.00;14.75;;;;;;;5.25;68.98;93728.03;2163602;54;20076;-69
2021/11/26 09:44:01;;;;;;;20.35;13.18;;;;;;;5.18;68.57;93726.97;2163436;54;20597;-69
2021/11/26 09:46:05;;;;;;;23.33;13.00;;;;;;;5.18;68.74;93719.19;2163656;47;20580;-68
2021/11/26 09:48:07;;;;;;;20.30;13.63;;;;;;;5.28;68.80;93709.53;2163418;54;20038;-75
2021/11/26 09:50:09;;;;;;;25.02;13.90;;;;;;;5.31;68.33;93684.09;2163398;54;20589;-77
2021/11/26 09:52:11;;;;;;;22.83;13.57;;;;;;;5.38;68.39;93679.09;2163397;46;20148;-74
2021/11/26 09:54:14;;;;;;;20.60;14.35;;;;;;;5.47;68.45;93664.38;2163212;47;20587;-75
2021/11/26 09:56:16;;;;;;;22.83;14.15;;;;;;;5.42;67.98;93664.84;2162959;54;20669;-76
2021/11/26 09:58:19;;;;;;;22.20;14.07;;;;;;;5.22;68.78;93632.25;2163738;54;20052;-73
2021/11/26 10:00:21;;;;;;;26.98;14.75;;;;;;;5.27;69.03;93625.63;2163796;47;20080;-76
2021/11/26 10:02:23;;;;;;;20.63;13.60;;;;;;;5.37;69.15;93629.91;2163692;47;20545;-77
2021/11/26 10:04:25;;;;;;;21.45;13.65;;;;;;;5.45;68.53;93609.97;2163167;39;20515;-69
2021/11/26 10:06:38;;;;;;;18.95;13.73;;;;;;;5.59;68.24;93598.19;2163756;54;20053;-69
2021/11/26 10:08:41;;;;;;;20.77;13.43;;;;;;;5.77;67.59;93610.31;2162226;47;20034;-70
2021/11/26 10:10:43;;;;;;;25.98;14.07;;;;;;;5.81;67.46;93629.78;2163635;54;20030;-71
2021/11/26 10:12:56;;;;;;;20.52;12.75;;;;;;;5.85;67.39;93629.34;2163777;54;20037;-69
2021/11/26 10:14:58;;;;;;;19.80;13.65;;;;;;;5.93;67.26;93620.75;2162995;54;20030;-69
2021/11/26 10:17:20;;;;;;;19.88;13.32;;;;;;;5.88;67.03;93626.41;2163722;54;20038;-76
2021/11/26 10:19:42;;;;;;;18.70;12.45;;;;;;;5.92;66.98;93629.53;2163387;54;20142;-76
2021/11/26 10:21:44;;;;;;;18.27;11.40;;;;;;;5.74;66.58;93633.03;2163700;39;20322;-77
2021/11/26 10:23:48;;;;;;;16.77;12.55;;;;;;;5.71;66.73;93628.13;2163108;54;20037;-76
2021/11/26 10:25:51;;;;;;;23.10;11.77;;;;;;;5.81;66.92;93625.44;2163812;54;20046;-77
2021/11/26 10:28:02;;;;;;;17.17;12.05;;;;;;;5.86;66.67;93617.97;2163637;47;20037;-68
2021/11/26 10:30:19;;;;;;;19.45;11.77;;;;;;;5.88;66.58;93581.41;2163479;54;20053;-67
2021/11/26 10:32:23;;;;;;;15.82;10.40;;;;;;;6.03;66.13;93566.06;2163628;47;20038;-69
2021/11/26 10:34:25;;;;;;;;;;;;;;;5.89;65.52;93578.66;2163570;39;20093;-70
2021/11/26 10:36:28;;;;;;;17.60;11.40;;;;;;;5.95;66.00;93596.25;2162929;54;19953;-71
2021/11/26 10:38:32;;;;;;;15.82;10.65;;;;;;;6.00;66.02;93611.41;2162812;47;20034;-71
2021/11/26 10:40:37;;;;;;;18.25;11.75;;;;;;;6.05;66.02;93622.13;2163598;54;20034;-70
2021/11/26 10:42:40;;;;;;;15.18;11.20;;;;;;;6.14;65.48;93610.75;2163348;46;20053;-69
2021/11/26 10:44:51;;;;;;;16.33;10.38;;;;;;;5.97;65.24;93601.28;2163434;47;20046;-71
2021/11/26 10:47:13;;;;;;;17.60;11.10;;;;;;;5.93;65.63;93605.16;2163577;47;20038;-70
2021/11/26 10:58:54;;;;;;;17.17;10.70;;;;;;;5.52;65.95;93581.59;2163442;39;21404;-67
2021/11/26 11:01:02;;;;;;;18.75;11.30;;;;;;;5.20;67.47;93577.88;2162799;54;20030;-69
2021/11/26 11:03:04;;;;;;;15.48;10.65;;;;;;;5.20;67.87;93601.22;2162939;47;20046;-69
2021/11/26 11:05:11;;;;;;;16.58;11.70;;;;;;;5.06;67.79;93600.03;2163373;50;20053;-68
2021/11/26 11:07:14;;;;;;;18.40;11.15;;;;;;;4.83;68.49;93584.13;2163524;39;20412;-68
2021/11/26 11:09:15;;;;;;;15.43;11.25;;;;;;;4.97;68.22;93590.56;2162165;47;20575;-69
2021/11/26 11:11:18;;;;;;;14.85;11.10;;;;;;;5.14;68.15;93568.09;2163442;54;20553;-67
2021/11/26 11:13:26;;;;;;;18.63;11.27;;;;;;;5.23;67.55;93563.78;2163363;54;20034;-69
2021/11/26 11:15:28;;;;;;;17.15;11.02;;;;;;;5.33;67.33;93557.50;2163532;47;20031;-69
2021/11/26 11:17:30;;;;;;;18.35;11.57;;;;;;;5.30;67.45;93544.81;2163580;47;20061;-70
2021/11/26 11:19:33;;;;;;;16.45;10.98;;;;;;;5.24;67.30;93555.81;2162855;39;20437;-68
2021/11/26 11:21:35;;;;;;;19.80;11.73;;;;;;;5.39;67.48;93566.44;2163797;39;20313;-69
2021/11/26 11:23:37;;;;;;;15.52;11.02;;;;;;;5.53;66.90;93562.47;2162041;54;20357;-69
2021/11/26 11:25:41;;;;;;;17.02;11.60;;;;;;;5.63;66.60;93536.34;2163738;39;20780;-69
2021/11/26 11:27:49;;;;;;;14.55;11.00;;;;;;;5.75;66.33;93535.91;2163390;47;20084;-71
2021/11/26 11:29:52;;;;;;;17.05;11.65;;;;;;;5.73;66.16;93543.03;2163512;47;20658;-70
2021/11/26 11:31:56;;;;;;;15.55;10.93;;;;;;;5.73;65.83;93516.25;2162648;54;20046;-68
2021/11/26 11:33:58;;;;;;;15.35;10.60;;;;;;;5.49;66.14;93540.38;2163212;54;20034;-71
2021/11/26 11:36:02;;;;;;;17.42;10.45;;;;;;;5.60;66.16;93534.88;2163416;47;20037;-70
2021/11/26 11:38:08;;;;;;;16.63;10.95;;;;;;;5.66;65.89;93510.88;2163437;54;20580;-71
2021/11/26 11:40:11;;;;;;;18.85;10.93;;;;;;;5.65;65.82;93493.63;2162750;47;20030;-70
2021/11/26 11:42:24;;;;;;;15.55;10.13;;;;;;;5.66;65.88;93494.47;2163698;54;20038;-78
2021/11/26 11:44:35;;;;;;;13.32;9.65;;;;;;;5.54;65.85;93505.13;2164331;46;20072;-77
2021/11/26 11:46:37;;;;;;;14.82;10.38;;;;;;;5.50;66.06;93524.59;2164742;51;20091;-75
2021/11/26 11:48:49;;;;;;;16.67;10.20;;;;;;;5.44;66.25;93507.06;2163704;47;20031;-76
2021/11/26 11:50:51;;;;;;;15.05;10.18;;;;;;;5.61;65.91;93505.31;2162753;54;20031;-74
2021/11/26 11:53:00;;;;;;;15.05;10.45;;;;;;;5.82;65.58;93494.50;2162776;47;20091;-69